Time;durP1;ratioP1;P1;durP2;ratioP2;P2;SDS_P1;SDS_P2;PMS_P1;PMS_P2;Temp;Humidity;BMP_temperature;BMP_pressure;BME280_temperature;BME280_humidity;BME280_pressure;Samples;Min_cycle;Max_cycle;Signal;HPM_P1;HPM_P2
2022/04/11 00:00:25;;;;;;;7.50;3.95;;;;;;;;;;5088074;28;20036;-62
2022/04/11 00:02:51;;;;;;;5.95;3.92;;;;;;;;;;5082135;28;20421;-62
2022/04/11 00:05:17;;;;;;;5.43;3.67;;;;;;;;;;5071770;28;20040;-62
2022/04/11 00:07:43;;;;;;;5.00;3.67;;;;;;;;;;5071702;28;20094;-62
2022/04/11 00:10:09;;;;;;;6.90;3.55;;;;;;;;;;5071061;28;20033;-62
2022/04/11 00:12:37;;;;;;;7.00;4.00;;;;;;;;;;5089337;28;20032;-63
2022/04/11 00:15:07;;;;;;;5.78;3.25;;;;;;;;;;5087999;28;20043;-63
2022/04/11 00:17:33;;;;;;;6.43;4.07;;;;;;;;;;5091376;28;20039;-63
2022/04/11 00:19:59;;;;;;;7.25;3.40;;;;;;;;;;5091111;28;20482;-62
2022/04/11 00:22:25;;;;;;;3.83;3.15;;;;;;;;;;5090017;28;20123;-62
2022/04/11 00:24:51;;;;;;;8.60;3.85;;;;;;;;;;5106103;22;20040;-61
2022/04/11 00:27:17;;;;;;;3.58;2.60;;;;;;;;;;5071251;28;20565;-61
2022/04/11 00:29:43;;;;;;;3.40;1.83;;;;;;;;;;5094927;28;20119;-61
2022/04/11 00:32:09;;;;;;;3.90;2.63;;;;;;;;;;5105819;28;20413;-61
2022/04/11 00:34:36;;;;;;;7.07;3.50;;;;;;;;;;5089346;28;20062;-62
2022/04/11 00:37:02;;;;;;;6.82;3.53;;;;;;;;;;5085086;28;20039;-62
2022/04/11 00:39:28;;;;;;;4.53;3.50;;;;;;;;;;5093593;28;20058;-62
2022/04/11 00:41:54;;;;;;;4.95;3.65;;;;;;;;;;5095288;28;20489;-62
2022/04/11 00:44:20;;;;;;;6.60;3.70;;;;;;;;;;5077039;28;20044;-61
2022/04/11 00:46:46;;;;;;;8.82;3.50;;;;;;;;;;5095600;28;20036;-62
2022/04/11 00:49:12;;;;;;;4.60;3.25;;;;;;;;;;5094185;28;20115;-62
2022/04/11 00:51:38;;;;;;;5.93;2.75;;;;;;;;;;5094238;28;20032;-62
2022/04/11 00:54:04;;;;;;;5.78;3.45;;;;;;;;;;5095400;28;20130;-62
2022/04/11 00:56:31;;;;;;;5.45;3.20;;;;;;;;;;5095005;28;20032;-62
2022/04/11 00:59:01;;;;;;;5.43;3.17;;;;;;;;;;5095123;28;20043;-61
2022/04/11 01:01:27;;;;;;;5.05;2.90;;;;;;;;;;5094700;28;20039;-62
2022/04/11 01:03:53;;;;;;;3.67;2.70;;;;;;;;;;5094213;28;20088;-62
2022/04/11 01:06:19;;;;;;;4.20;3.35;;;;;;;;;;5094398;28;20035;-62
2022/04/11 01:08:46;;;;;;;3.90;3.03;;;;;;;;;;5085515;28;20044;-62
2022/04/11 01:11:12;;;;;;;4.70;3.40;;;;;;;;;;5095079;28;20367;-62
2022/04/11 01:13:38;;;;;;;5.95;3.50;;;;;;;;;;5094901;28;20043;-62
2022/04/11 01:16:05;;;;;;;5.25;3.90;;;;;;;;;;5093904;28;20461;-62
2022/04/11 01:18:34;;;;;;;5.88;4.20;;;;;;;;;;5085680;28;20044;-62
2022/04/11 01:21:00;;;;;;;7.65;4.20;;;;;;;;;;5079834;28;20036;-62
2022/04/11 01:23:26;;;;;;;7.40;4.35;;;;;;;;;;5094339;28;20101;-62
2022/04/11 01:25:53;;;;;;;4.88;3.90;;;;;;;;;;5094855;28;20040;-62
2022/04/11 01:28:20;;;;;;;5.78;4.43;;;;;;;;;;5094545;28;20498;-62
2022/04/11 01:30:46;;;;;;;4.63;3.72;;;;;;;;;;5094533;28;20040;-62
2022/04/11 01:33:20;;;;;;;6.13;3.95;;;;;;;;;;5093235;28;20524;-62
2022/04/11 01:35:46;;;;;;;6.55;3.55;;;;;;;;;;5094187;28;20043;-62
2022/04/11 01:38:12;;;;;;;5.80;3.47;;;;;;;;;;5094887;28;20558;-62
2022/04/11 01:40:46;;;;;;;6.00;3.60;;;;;;;;;;5087419;28;20037;-62
2022/04/11 01:43:12;;;;;;;5.53;3.50;;;;;;;;;;5092313;28;20068;-62
2022/04/11 01:45:38;;;;;;;5.72;3.53;;;;;;;;;;5094459;28;20079;-62
2022/04/11 01:48:04;;;;;;;7.40;3.83;;;;;;;;;;5092775;28;20032;-62
2022/04/11 01:50:30;;;;;;;4.90;3.53;;;;;;;;;;5075183;28;20085;-62
2022/04/11 01:53:03;;;;;;;7.22;3.60;;;;;;;;;;5093649;28;20035;-62
2022/04/11 01:55:29;;;;;;;5.80;3.58;;;;;;;;;;5094583;28;20047;-62
2022/04/11 01:57:55;;;;;;;6.47;3.85;;;;;;;;;;5093444;28;20266;-62
2022/04/11 02:00:21;;;;;;;7.43;3.67;;;;;;;;;;5092267;28;20044;-62
2022/04/11 02:02:47;;;;;;;4.85;3.63;;;;;;;;;;5087800;28;20043;-62
2022/04/11 02:05:13;;;;;;;7.68;3.90;;;;;;;;;;5091747;28;20044;-62
2022/04/11 02:07:39;;;;;;;7.10;4.15;;;;;;;;;;5084970;28;20501;-62
2022/04/11 02:10:05;;;;;;;6.95;3.97;;;;;;;;;;5093733;28;20035;-62
2022/04/11 02:12:31;;;;;;;7.50;4.43;;;;;;;;;;5075493;28;20071;-62
2022/04/11 02:14:57;;;;;;;5.47;4.38;;;;;;;;;;5092481;28;20071;-62
2022/04/11 02:17:23;;;;;;;5.68;4.38;;;;;;;;;;5093156;28;20044;-63
2022/04/11 02:19:49;;;;;;;9.40;4.57;;;;;;;;;;5088135;28;20051;-62
2022/04/11 02:22:15;;;;;;;6.70;4.60;;;;;;;;;;5091164;28;20118;-63
2022/04/11 02:24:41;;;;;;;6.45;4.65;;;;;;;;;;5075644;28;20119;-62
2022/04/11 02:27:07;;;;;;;7.28;4.45;;;;;;;;;;5093147;28;20036;-63
2022/04/11 02:29:33;;;;;;;9.05;4.53;;;;;;;;;;5093184;28;20081;-63
2022/04/11 02:31:59;;;;;;;5.65;4.20;;;;;;;;;;5093016;28;20043;-63
2022/04/11 02:34:26;;;;;;;7.72;4.72;;;;;;;;;;5092718;28;20131;-63
2022/04/11 02:36:52;;;;;;;6.07;4.53;;;;;;;;;;5093715;28;20036;-63
2022/04/11 02:39:18;;;;;;;3.28;2.70;;;;;;;;;;5075841;28;20050;-63
2022/04/11 02:41:43;;;;;;;4.35;3.00;;;;;;;;;;5075019;28;20513;-63
2022/04/11 02:44:09;;;;;;;6.82;4.15;;;;;;;;;;5093461;28;20078;-63
2022/04/11 02:46:36;;;;;;;6.03;3.30;;;;;;;;;;5092567;28;20039;-62
2022/04/11 02:49:02;;;;;;;6.30;3.97;;;;;;;;;;5093125;28;20485;-63
2022/04/11 02:51:28;;;;;;;5.50;3.83;;;;;;;;;;5091516;28;20032;-62
2022/04/11 02:53:54;;;;;;;5.25;4.00;;;;;;;;;;5093100;28;20036;-63
2022/04/11 02:56:20;;;;;;;6.68;3.90;;;;;;;;;;5092661;28;20040;-62
2022/04/11 02:58:46;;;;;;;6.43;4.13;;;;;;;;;;5092599;28;20120;-63
2022/04/11 03:01:12;;;;;;;5.13;3.53;;;;;;;;;;5092644;28;20043;-62
2022/04/11 03:03:38;;;;;;;5.65;4.18;;;;;;;;;;5077892;28;20118;-62
2022/04/11 03:06:04;;;;;;;7.97;4.10;;;;;;;;;;5089425;28;20044;-63
2022/04/11 03:08:30;;;;;;;6.22;3.90;;;;;;;;;;5092656;28;20111;-63
2022/04/11 03:10:56;;;;;;;6.25;3.88;;;;;;;;;;5092478;28;20130;-63
2022/04/11 03:13:22;;;;;;;6.07;4.00;;;;;;;;;;5092648;28;20036;-63
2022/04/11 03:15:48;;;;;;;7.70;4.18;;;;;;;;;;5092454;28;20119;-63
2022/04/11 03:18:14;;;;;;;5.05;3.85;;;;;;;;;;5090213;28;20067;-62
2022/04/11 03:20:40;;;;;;;7.38;4.63;;;;;;;;;;5091372;28;20046;-63
2022/04/11 03:23:06;;;;;;;4.72;3.95;;;;;;;;;;5091709;28;20032;-63
2022/04/11 03:25:32;;;;;;;6.03;4.20;;;;;;;;;;5092310;28;20444;-63
2022/04/11 03:27:58;;;;;;;5.93;4.15;;;;;;;;;;5092041;28;20123;-63
2022/04/11 03:30:24;;;;;;;8.75;4.20;;;;;;;;;;5092013;28;20096;-63
2022/04/11 03:32:50;;;;;;;7.25;4.20;;;;;;;;;;5082541;28;20520;-63
2022/04/11 03:35:16;;;;;;;5.75;3.75;;;;;;;;;;5071573;28;20051;-63
2022/04/11 03:37:42;;;;;;;10.13;4.47;;;;;;;;;;5091117;28;20523;-63
2022/04/11 03:40:10;;;;;;;5.72;4.10;;;;;;;;;;5076652;28;20524;-63
2022/04/11 03:42:36;;;;;;;7.00;4.00;;;;;;;;;;5091678;28;20072;-63
2022/04/11 03:45:04;;;;;;;6.43;3.75;;;;;;;;;;5088352;28;20071;-63
2022/04/11 03:47:30;;;;;;;6.65;4.03;;;;;;;;;;5082325;28;20043;-63
2022/04/11 03:49:56;;;;;;;5.82;3.70;;;;;;;;;;5078413;28;20119;-63
2022/04/11 03:52:22;;;;;;;5.50;3.65;;;;;;;;;;5091391;28;20085;-63
2022/04/11 03:54:48;;;;;;;4.40;3.83;;;;;;;;;;5091601;28;20036;-63
2022/04/11 03:57:14;;;;;;;5.72;4.30;;;;;;;;;;5090858;28;20509;-63
2022/04/11 03:59:40;;;;;;;7.20;3.80;;;;;;;;;;5091668;28;20413;-63
2022/04/11 04:02:06;;;;;;;6.35;3.55;;;;;;;;;;5086930;28;20035;-63
2022/04/11 04:04:32;;;;;;;8.25;3.80;;;;;;;;;;5090804;28;20089;-63
2022/04/11 04:06:58;;;;;;;5.18;3.95;;;;;;;;;;5090924;28;20299;-63
2022/04/11 04:09:24;;;;;;;5.28;3.78;;;;;;;;;;5091616;28;20036;-63
2022/04/11 04:11:50;;;;;;;5.53;3.90;;;;;;;;;;5084548;28;20032;-63
2022/04/11 04:14:16;;;;;;;6.53;3.55;;;;;;;;;;5089220;28;20071;-63
2022/04/11 04:16:42;;;;;;;5.65;3.47;;;;;;;;;;5073346;28;20044;-63
2022/04/11 04:19:08;;;;;;;7.05;4.63;;;;;;;;;;5085911;28;20032;-64
2022/04/11 04:21:35;;;;;;;5.45;3.67;;;;;;;;;;5091877;28;20036;-63
2022/04/11 04:24:00;;;;;;;5.55;3.90;;;;;;;;;;5071864;28;20125;-63
2022/04/11 04:26:26;;;;;;;6.85;4.15;;;;;;;;;;5091184;28;20090;-62
2022/04/11 04:28:52;;;;;;;6.55;4.18;;;;;;;;;;5090461;28;20036;-62
2022/04/11 04:31:18;;;;;;;7.60;3.90;;;;;;;;;;5091389;28;20040;-62
2022/04/11 04:33:44;;;;;;;5.65;4.00;;;;;;;;;;5091579;28;20035;-62
2022/04/11 04:36:10;;;;;;;5.50;4.07;;;;;;;;;;5091061;28;20481;-62
2022/04/11 04:38:36;;;;;;;7.15;4.53;;;;;;;;;;5085607;28;20040;-62
2022/04/11 04:41:02;;;;;;;6.13;3.83;;;;;;;;;;5089874;28;20036;-62
2022/04/11 04:43:28;;;;;;;5.80;4.28;;;;;;;;;;5090624;28;20143;-62
2022/04/11 04:45:54;;;;;;;6.38;4.03;;;;;;;;;;5090350;28;20141;-62
2022/04/11 04:48:20;;;;;;;7.30;4.30;;;;;;;;;;5090415;28;20067;-62
2022/04/11 04:50:47;;;;;;;7.80;4.20;;;;;;;;;;5090449;28;20047;-62
2022/04/11 04:53:12;;;;;;;7.88;4.70;;;;;;;;;;5077148;28;20486;-62
2022/04/11 04:55:38;;;;;;;7.78;4.50;;;;;;;;;;5091535;28;20044;-62
2022/04/11 04:58:05;;;;;;;4.68;3.92;;;;;;;;;;5091129;28;20047;-62
2022/04/11 05:00:31;;;;;;;6.10;4.10;;;;;;;;;;5091124;28;20040;-62
2022/04/11 05:02:57;;;;;;;5.82;4.43;;;;;;;;;;5090075;28;20043;-62
2022/04/11 05:05:23;;;;;;;7.32;4.35;;;;;;;;;;5090935;28;20409;-62
2022/04/11 05:07:49;;;;;;;8.60;4.55;;;;;;;;;;5091304;28;20040;-62
2022/04/11 05:10:15;;;;;;;6.70;4.18;;;;;;;;;;5090802;28;20040;-62
2022/04/11 05:12:44;;;;;;;9.07;4.20;;;;;;;;;;5090914;28;20150;-62
2022/04/11 05:15:11;;;;;;;5.45;3.70;;;;;;;;;;5091619;28;20043;-62
2022/04/11 05:17:38;;;;;;;4.90;4.05;;;;;;;;;;5089283;28;20511;-63
2022/04/11 05:20:04;;;;;;;6.60;3.78;;;;;;;;;;5089676;28;20028;-63
2022/04/11 05:22:31;;;;;;;3.97;3.40;;;;;;;;;;5084126;28;20056;-63
2022/04/11 05:24:57;;;;;;;5.78;4.13;;;;;;;;;;5094271;28;20043;-63
2022/04/11 05:27:23;;;;;;;5.65;4.10;;;;;;;;;;5094251;28;20040;-62
2022/04/11 05:29:49;;;;;;;5.65;3.70;;;;;;;;;;5075964;28;20504;-62
2022/04/11 05:32:15;;;;;;;5.40;3.80;;;;;;;;;;5075710;28;20043;-62
2022/04/11 05:34:41;;;;;;;6.43;4.20;;;;;;;;;;5094067;28;20549;-62
2022/04/11 05:37:07;;;;;;;6.40;3.80;;;;;;;;;;5076670;28;20040;-62
2022/04/11 05:39:33;;;;;;;6.45;3.83;;;;;;;;;;5093370;28;20555;-62
2022/04/11 05:41:59;;;;;;;5.95;4.07;;;;;;;;;;5095011;28;20044;-62
2022/04/11 05:44:25;;;;;;;7.47;4.10;;;;;;;;;;5092740;28;20043;-62
2022/04/11 05:46:52;;;;;;;6.30;3.88;;;;;;;;;;5094393;28;20028;-62
2022/04/11 05:49:21;;;;;;;6.68;3.60;;;;;;;;;;5094053;28;20048;-62
2022/04/11 05:51:47;;;;;;;5.28;3.75;;;;;;;;;;5092517;28;20048;-62
2022/04/11 05:54:14;;;;;;;4.57;3.90;;;;;;;;;;5090931;28;20127;-62
2022/04/11 05:56:40;;;;;;;4.50;4.03;;;;;;;;;;5057771;28;20076;-62
2022/04/11 05:59:08;;;;;;;5.53;4.13;;;;;;;;;;5090151;28;20039;-62
2022/04/11 06:01:34;;;;;;;5.40;3.83;;;;;;;;;;5084927;28;20043;-62
2022/04/11 06:04:00;;;;;;;6.10;3.97;;;;;;;;;;5092756;28;20461;-62
2022/04/11 06:06:26;;;;;;;6.68;4.30;;;;;;;;;;5093602;28;20068;-62
2022/04/11 06:08:52;;;;;;;6.78;4.03;;;;;;;;;;5093173;28;20080;-62
2022/04/11 06:11:18;;;;;;;4.82;3.80;;;;;;;;;;5094461;28;20040;-62
2022/04/11 06:13:45;;;;;;;4.72;3.83;;;;;;;;;;5092667;28;20032;-63
2022/04/11 06:16:11;;;;;;;6.47;4.43;;;;;;;;;;5089213;28;20518;-62
2022/04/11 06:18:37;;;;;;;7.10;4.00;;;;;;;;;;5073933;28;20044;-62
2022/04/11 06:21:03;;;;;;;6.75;4.55;;;;;;;;;;5093662;28;20040;-62
2022/04/11 06:23:29;;;;;;;8.35;4.05;;;;;;;;;;5107621;22;20381;-63
2022/04/11 06:25:55;;;;;;;5.47;4.15;;;;;;;;;;5091176;28;20120;-63
2022/04/11 06:28:21;;;;;;;6.32;4.13;;;;;;;;;;5077090;28;20488;-63
2022/04/11 06:30:47;;;;;;;6.32;4.43;;;;;;;;;;5090368;28;20032;-63
2022/04/11 06:33:13;;;;;;;10.13;5.07;;;;;;;;;;5090452;28;20036;-63
2022/04/11 06:35:39;;;;;;;10.75;5.45;;;;;;;;;;5068454;28;20040;-63
2022/04/11 06:38:05;;;;;;;14.85;8.75;;;;;;;;;;5070137;28;20467;-64
2022/04/11 06:40:31;;;;;;;11.23;6.30;;;;;;;;;;5072608;28;20078;-63
2022/04/11 06:42:57;;;;;;;9.90;5.60;;;;;;;;;;5068162;28;20501;-63
2022/04/11 06:45:24;;;;;;;9.70;5.78;;;;;;;;;;5070443;28;20037;-63
2022/04/11 06:47:50;;;;;;;9.70;5.57;;;;;;;;;;5067286;28;20028;-63
2022/04/11 06:50:16;;;;;;;8.07;6.22;;;;;;;;;;5068554;28;20041;-63
2022/04/11 06:52:42;;;;;;;8.07;6.43;;;;;;;;;;5071293;28;20036;-64
2022/04/11 06:55:08;;;;;;;10.07;6.25;;;;;;;;;;5072049;28;20045;-64
2022/04/11 06:57:34;;;;;;;7.63;6.07;;;;;;;;;;5068661;28;20089;-64
2022/04/11 07:00:01;;;;;;;11.43;6.63;;;;;;;;;;5051911;28;20123;-64
2022/04/11 07:02:27;;;;;;;10.45;6.80;;;;;;;;;;5072159;28;20121;-64
2022/04/11 07:04:53;;;;;;;8.98;6.88;;;;;;;;;;5066009;28;20044;-64
2022/04/11 07:07:19;;;;;;;7.50;6.28;;;;;;;;;;5072214;28;20398;-64
2022/04/11 07:09:45;;;;;;;8.20;6.15;;;;;;;;;;5072215;28;20086;-64
2022/04/11 07:12:11;;;;;;;9.77;6.10;;;;;;;;;;5072620;28;20033;-64
2022/04/11 07:14:37;;;;;;;10.18;6.45;;;;;;;;;;5071316;28;20048;-64
2022/04/11 07:17:04;;;;;;;9.07;6.43;;;;;;;;;;5071736;28;20032;-64
2022/04/11 07:19:30;;;;;;;8.75;6.72;;;;;;;;;;5067273;28;20409;-64
2022/04/11 07:21:56;;;;;;;9.68;6.95;;;;;;;;;;5071594;28;20040;-64
2022/04/11 07:24:23;;;;;;;9.95;5.65;;;;;;;;;;5071045;28;20516;-64
2022/04/11 07:26:49;;;;;;;8.57;5.97;;;;;;;;;;5065722;28;20108;-63
2022/04/11 07:29:15;;;;;;;9.77;6.30;;;;;;;;;;5069432;28;20040;-63
2022/04/11 07:31:41;;;;;;;8.35;6.65;;;;;;;;;;5067529;28;20086;-64
2022/04/11 07:34:07;;;;;;;10.60;6.25;;;;;;;;;;5067287;28;20036;-64
2022/04/11 07:36:33;;;;;;;12.05;6.82;;;;;;;;;;5062678;28;20437;-63
2022/04/11 07:38:59;;;;;;;10.52;6.60;;;;;;;;;;5068626;28;20037;-63
2022/04/11 07:41:26;;;;;;;9.15;6.28;;;;;;;;;;5060662;28;20083;-63
2022/04/11 07:43:54;;;;;;;10.18;6.63;;;;;;;;;;5061118;28;20064;-63
2022/04/11 07:46:20;;;;;;;12.30;6.72;;;;;;;;;;5061814;28;20044;-63
2022/04/11 07:48:46;;;;;;;8.25;6.30;;;;;;;;;;5060487;28;20119;-64
2022/04/11 07:51:12;;;;;;;11.52;7.15;;;;;;;;;;5064250;28;20116;-64
2022/04/11 07:53:38;;;;;;;9.57;7.00;;;;;;;;;;5071656;28;20032;-63
2022/04/11 07:56:04;;;;;;;9.13;6.95;;;;;;;;;;5052642;28;20036;-64
2022/04/11 07:58:30;;;;;;;9.35;7.38;;;;;;;;;;5071081;28;20102;-64
2022/04/11 08:00:56;;;;;;;10.50;6.88;;;;;;;;;;5065783;28;20506;-63
2022/04/11 08:03:22;;;;;;;8.35;6.88;;;;;;;;;;5069085;28;20040;-63
2022/04/11 08:05:48;;;;;;;9.70;7.00;;;;;;;;;;5050884;28;20048;-63
2022/04/11 08:08:15;;;;;;;9.68;7.10;;;;;;;;;;5059456;28;20033;-63
2022/04/11 08:10:42;;;;;;;15.82;9.27;;;;;;;;;;5070146;28;20045;-63
2022/04/11 08:13:07;;;;;;;11.63;7.10;;;;;;;;;;5070973;28;20064;-63
2022/04/11 08:15:34;;;;;;;10.75;6.32;;;;;;;;;;5069769;28;20125;-63
2022/04/11 08:18:00;;;;;;;10.70;6.63;;;;;;;;;;5069384;28;21157;-63
2022/04/11 08:20:26;;;;;;;13.60;6.82;;;;;;;;;;5069902;28;20138;-63
2022/04/11 08:22:53;;;;;;;12.13;7.13;;;;;;;;;;5070329;28;20067;-64
2022/04/11 08:25:19;;;;;;;11.77;6.88;;;;;;;;;;5066310;28;20040;-64
2022/04/11 08:27:45;;;;;;;11.20;7.25;;;;;;;;;;5065442;28;20474;-63
2022/04/11 08:30:13;;;;;;;10.10;7.38;;;;;;;;;;5069726;28;20044;-64
2022/04/11 08:32:42;;;;;;;11.00;6.63;;;;;;;;;;5063586;28;20041;-64
2022/04/11 08:35:09;;;;;;;13.30;7.70;;;;;;;;;;5059931;28;20115;-63
2022/04/11 08:37:40;;;;;;;10.15;7.22;;;;;;;;;;5062774;28;20036;-63
2022/04/11 08:40:12;;;;;;;11.73;6.72;;;;;;;;;;5071529;28;20044;-64
2022/04/11 08:42:39;;;;;;;9.70;6.72;;;;;;;;;;5057876;28;20311;-63
2022/04/11 08:45:05;;;;;;;11.15;6.07;;;;;;;;;;5064603;28;20045;-63
2022/04/11 08:47:31;;;;;;;9.25;7.15;;;;;;;;;;5057099;28;20057;-64
2022/04/11 08:49:57;;;;;;;10.40;6.10;;;;;;;;;;5061862;28;20068;-63
2022/04/11 08:52:24;;;;;;;13.98;7.40;;;;;;;;;;5069232;28;20127;-63
2022/04/11 08:54:50;;;;;;;10.15;6.63;;;;;;;;;;5062901;28;20533;-64
2022/04/11 08:57:16;;;;;;;9.55;6.28;;;;;;;;;;5069387;28;20048;-64
2022/04/11 08:59:42;;;;;;;10.52;5.97;;;;;;;;;;5075057;28;20508;-64
2022/04/11 09:02:09;;;;;;;9.75;6.15;;;;;;;;;;5075562;28;20040;-64
2022/04/11 09:04:49;;;;;;;8.77;6.03;;;;;;;;;;5074941;28;20052;-63
2022/04/11 09:07:15;;;;;;;12.63;5.65;;;;;;;;;;5052142;28;20052;-64
2022/04/11 09:09:41;;;;;;;11.05;5.30;;;;;;;;;;5067693;28;20043;-64
2022/04/11 09:12:09;;;;;;;7.70;5.13;;;;;;;;;;5073116;28;20079;-64
2022/04/11 09:14:37;;;;;;;10.02;5.47;;;;;;;;;;5074890;28;20043;-64
2022/04/11 09:17:03;;;;;;;12.10;5.97;;;;;;;;;;5075151;28;20079;-64
2022/04/11 09:19:31;;;;;;;10.57;5.43;;;;;;;;;;5073440;28;20096;-64
2022/04/11 09:21:57;;;;;;;8.02;5.05;;;;;;;;;;5065585;28;20080;-64
2022/04/11 09:24:26;;;;;;;9.02;5.55;;;;;;;;;;5064962;28;20049;-64
2022/04/11 09:26:55;;;;;;;4.97;3.63;;;;;;;;;;5073417;28;20098;-64
2022/04/11 09:29:21;;;;;;;6.90;3.92;;;;;;;;;;5074671;28;20107;-63
2022/04/11 09:31:47;;;;;;;7.35;4.15;;;;;;;;;;5074378;28;20575;-64
2022/04/11 09:34:14;;;;;;;7.20;4.57;;;;;;;;;;5068775;28;20146;-64
2022/04/11 09:36:45;;;;;;;6.35;3.90;;;;;;;;;;5069496;28;20043;-64
2022/04/11 09:39:11;;;;;;;9.55;5.03;;;;;;;;;;5072145;28;20380;-64
2022/04/11 09:41:41;;;;;;;8.23;4.65;;;;;;;;;;5074538;28;20040;-64
2022/04/11 09:44:21;;;;;;;7.85;4.90;;;;;;;;;;5073517;28;20068;-64
2022/04/11 09:46:46;;;;;;;8.90;5.00;;;;;;;;;;5073393;28;20036;-64
2022/04/11 09:49:13;;;;;;;9.02;5.03;;;;;;;;;;5065736;28;20063;-61
2022/04/11 09:51:58;;;;;;;10.48;5.28;;;;;;;;;;5074022;28;20036;-61
2022/04/11 09:54:25;;;;;;;8.75;5.32;;;;;;;;;;5073194;28;20051;-63
2022/04/11 09:56:51;;;;;;;10.48;5.30;;;;;;;;;;5074022;28;20137;-63
2022/04/11 09:59:18;;;;;;;8.27;5.43;;;;;;;;;;5056235;28;20094;-63
2022/04/11 10:01:44;;;;;;;9.40;5.30;;;;;;;;;;5063323;28;20032;-63
2022/04/11 10:04:11;;;;;;;13.70;6.15;;;;;;;;;;5065388;28;20072;-63
2022/04/11 10:06:37;;;;;;;11.18;6.05;;;;;;;;;;5072372;28;20036;-63
2022/04/11 10:09:03;;;;;;;11.88;6.25;;;;;;;;;;5072092;28;20025;-63
2022/04/11 10:11:29;;;;;;;11.20;6.18;;;;;;;;;;5055631;28;20405;-63
2022/04/11 10:13:56;;;;;;;8.70;5.65;;;;;;;;;;5064786;28;20079;-63
2022/04/11 10:16:23;;;;;;;8.82;5.82;;;;;;;;;;5066891;28;20036;-64
2022/04/11 10:18:49;;;;;;;10.43;6.10;;;;;;;;;;5067481;28;20055;-64
2022/04/11 10:21:15;;;;;;;10.55;6.00;;;;;;;;;;5070896;28;20141;-63
2022/04/11 10:23:48;;;;;;;10.05;6.18;;;;;;;;;;5072947;28;20055;-63
2022/04/11 10:26:18;;;;;;;10.95;5.82;;;;;;;;;;5055158;28;20041;-63
2022/04/11 10:28:46;;;;;;;7.43;5.43;;;;;;;;;;5067087;28;20033;-63
2022/04/11 10:31:12;;;;;;;11.20;6.50;;;;;;;;;;5062715;28;20557;-63
2022/04/11 10:33:52;;;;;;;12.32;6.38;;;;;;;;;;5070401;28;20041;-63
2022/04/11 10:36:34;;;;;;;10.73;6.18;;;;;;;;;;5067167;28;20090;-63
2022/04/11 10:39:15;;;;;;;8.25;6.07;;;;;;;;;;5062085;28;20048;-64
2022/04/11 10:41:56;;;;;;;10.48;6.25;;;;;;;;;;5053726;28;20047;-64
2022/04/11 10:44:38;;;;;;;11.63;6.72;;;;;;;;;;5038430;28;20472;-64
2022/04/11 10:47:10;;;;;;;10.00;5.90;;;;;;;;;;5067832;28;20043;-63
2022/04/11 10:49:45;;;;;;;12.20;6.50;;;;;;;;;;5058256;28;20390;-63
2022/04/11 10:52:30;;;;;;;12.23;7.22;;;;;;;;;;5072651;28;20044;-63
2022/04/11 10:54:57;;;;;;;9.98;6.30;;;;;;;;;;5066760;28;20036;-63
2022/04/11 10:57:33;;;;;;;10.13;6.82;;;;;;;;;;5060057;28;20045;-64
2022/04/11 11:00:07;;;;;;;12.65;6.57;;;;;;;;;;5063324;28;20118;-63
2022/04/11 11:02:57;;;;;;;11.38;6.55;;;;;;;;;;5062786;28;20064;-63
2022/04/11 11:05:30;;;;;;;12.05;7.25;;;;;;;;;;5072483;28;20045;-64
2022/04/11 11:08:12;;;;;;;9.57;6.32;;;;;;;;;;5064609;28;20082;-64
2022/04/11 11:10:44;;;;;;;12.55;6.63;;;;;;;;;;5052805;28;20049;-64
2022/04/11 11:13:24;;;;;;;11.98;6.80;;;;;;;;;;5052962;28;20047;-64
2022/04/11 11:15:50;;;;;;;10.90;6.53;;;;;;;;;;5065466;28;20086;-64
2022/04/11 11:18:16;;;;;;;11.98;7.13;;;;;;;;;;5071391;28;20056;-63
2022/04/11 11:20:52;;;;;;;11.13;7.15;;;;;;;;;;5072199;28;20044;-64
2022/04/11 11:23:31;;;;;;;10.65;7.28;;;;;;;;;;5071795;28;20036;-64
2022/04/11 11:26:08;;;;;;;12.80;7.32;;;;;;;;;;5072381;28;20526;-64
2022/04/11 11:28:34;;;;;;;11.68;7.50;;;;;;;;;;5072098;28;20028;-64
2022/04/11 11:31:00;;;;;;;13.73;7.47;;;;;;;;;;5063947;28;20037;-64
2022/04/11 11:33:27;;;;;;;11.23;7.53;;;;;;;;;;5062408;28;20044;-64
2022/04/11 11:35:54;;;;;;;14.48;7.68;;;;;;;;;;5071665;28;20036;-64
2022/04/11 11:38:30;;;;;;;12.90;8.38;;;;;;;;;;5071519;28;20372;-64
2022/04/11 11:41:00;;;;;;;11.35;7.85;;;;;;;;;;5067912;28;20051;-64
2022/04/11 11:43:27;;;;;;;12.55;8.13;;;;;;;;;;5056679;28;20128;-64
2022/04/11 11:45:57;;;;;;;10.20;7.60;;;;;;;;;;5070541;28;20070;-64
2022/04/11 11:48:28;;;;;;;13.68;9.05;;;;;;;;;;5070753;28;20043;-64
2022/04/11 11:50:58;;;;;;;13.38;8.80;;;;;;;;;;5071546;28;20513;-64
2022/04/11 11:53:39;;;;;;;12.77;7.90;;;;;;;;;;5069767;28;20083;-63
2022/04/11 11:56:07;;;;;;;13.25;8.35;;;;;;;;;;5069003;28;20028;-63
2022/04/11 11:58:37;;;;;;;10.27;7.28;;;;;;;;;;5068205;28;20123;-63
2022/04/11 12:01:04;;;;;;;11.38;7.68;;;;;;;;;;5069537;28;20041;-63
2022/04/11 12:06:22;;;;;;;12.00;8.25;;;;;;;;;;5069414;28;20502;-63
2022/04/11 12:08:55;;;;;;;12.80;8.60;;;;;;;;;;5067137;28;20068;-62
2022/04/11 12:11:22;;;;;;;12.55;8.35;;;;;;;;;;5065059;28;20111;-63
2022/04/11 12:13:49;;;;;;;11.27;7.90;;;;;;;;;;5069482;28;20071;-63
2022/04/11 12:16:19;;;;;;;15.10;8.45;;;;;;;;;;5070563;28;20048;-63
2022/04/11 12:18:55;;;;;;;10.82;7.70;;;;;;;;;;5064035;28;20094;-63
2022/04/11 12:21:31;;;;;;;14.38;8.25;;;;;;;;;;5071009;28;20040;-63
2022/04/11 12:23:57;;;;;;;12.73;8.55;;;;;;;;;;5088759;22;20494;-63
2022/04/11 12:26:33;;;;;;;17.48;8.68;;;;;;;;;;5072516;28;20494;-63
2022/04/11 12:29:08;;;;;;;13.27;8.23;;;;;;;;;;5057247;28;20072;-63
2022/04/11 12:31:34;;;;;;;11.73;8.68;;;;;;;;;;5049697;28;20052;-63
2022/04/11 12:34:09;;;;;;;14.52;9.02;;;;;;;;;;5054664;28;20032;-63
2022/04/11 12:36:35;;;;;;;12.00;9.02;;;;;;;;;;5079798;28;20100;-63
2022/04/11 12:39:10;;;;;;;14.27;9.10;;;;;;;;;;5072861;28;20047;-63
2022/04/11 12:41:38;;;;;;;14.70;9.05;;;;;;;;;;5080469;28;20115;-63
2022/04/11 12:44:12;;;;;;;13.20;9.35;;;;;;;;;;5084190;28;20532;-63
2022/04/11 12:46:48;;;;;;;14.82;9.27;;;;;;;;;;5087771;28;20509;-63
2022/04/11 12:49:18;;;;;;;13.95;8.75;;;;;;;;;;5091045;28;20047;-63
2022/04/11 12:52:00;;;;;;;10.48;7.85;;;;;;;;;;5085737;28;20024;-63
2022/04/11 12:54:36;;;;;;;9.77;7.63;;;;;;;;;;5070155;28;20047;-63
2022/04/11 12:57:02;;;;;;;12.02;8.82;;;;;;;;;;5064131;28;20120;-63
2022/04/11 12:59:29;;;;;;;14.05;9.23;;;;;;;;;;5089072;28;20521;-63
2022/04/11 13:01:57;;;;;;;12.18;8.18;;;;;;;;;;5086190;28;20039;-63
2022/04/11 13:04:23;;;;;;;10.77;8.23;;;;;;;;;;5084060;28;20040;-63
2022/04/11 13:06:50;;;;;;;11.75;8.48;;;;;;;;;;5086017;28;20036;-63
2022/04/11 13:09:16;;;;;;;10.65;8.38;;;;;;;;;;5079339;28;20446;-63
2022/04/11 13:11:47;;;;;;;12.18;7.75;;;;;;;;;;5081264;28;20238;-63
2022/04/11 13:14:13;;;;;;;12.93;8.30;;;;;;;;;;5075829;28;21329;-63
2022/04/11 13:19:23;;;;;;;14.13;8.60;;;;;;;;;;5059852;28;20391;-63
2022/04/11 13:21:49;;;;;;;12.45;8.82;;;;;;;;;;5090927;28;20074;-63
2022/04/11 13:24:16;;;;;;;13.63;8.43;;;;;;;;;;5087906;28;20048;-63
2022/04/11 13:26:42;;;;;;;12.20;8.82;;;;;;;;;;5077429;28;20048;-63
2022/04/11 13:29:08;;;;;;;12.88;8.63;;;;;;;;;;5076291;28;20044;-63
2022/04/11 13:31:34;;;;;;;9.75;7.70;;;;;;;;;;5081631;28;20115;-63
2022/04/11 13:34:01;;;;;;;12.68;8.63;;;;;;;;;;5090594;28;20033;-63
2022/04/11 13:36:27;;;;;;;14.23;9.45;;;;;;;;;;5070925;28;20043;-63
2022/04/11 13:38:53;;;;;;;12.38;8.73;;;;;;;;;;5071960;28;20039;-64
2022/04/11 13:41:19;;;;;;;12.23;8.43;;;;;;;;;;5079381;28;20039;-63
2022/04/11 13:43:45;;;;;;;12.13;8.80;;;;;;;;;;5084401;28;20397;-63
2022/04/11 13:46:11;;;;;;;12.13;8.88;;;;;;;;;;5082486;28;20403;-63
2022/04/11 13:48:37;;;;;;;13.77;9.32;;;;;;;;;;5077769;28;20043;-64
2022/04/11 13:51:03;;;;;;;11.98;8.82;;;;;;;;;;5086815;28;20031;-63
2022/04/11 13:53:29;;;;;;;11.32;9.27;;;;;;;;;;5078625;28;20040;-64
2022/04/11 13:55:56;;;;;;;11.82;9.35;;;;;;;;;;5077353;28;20071;-63
2022/04/11 13:58:22;;;;;;;13.07;10.02;;;;;;;;;;5093945;28;20154;-63
2022/04/11 14:00:48;;;;;;;16.80;10.07;;;;;;;;;;5092987;28;20076;-63
2022/04/11 14:03:14;;;;;;;15.73;10.00;;;;;;;;;;5094291;28;20075;-63
2022/04/11 14:05:40;;;;;;;12.63;9.43;;;;;;;;;;5079459;28;20166;-63
2022/04/11 14:08:07;;;;;;;13.02;9.18;;;;;;;;;;5091785;28;20044;-63
2022/04/11 14:10:32;;;;;;;13.45;10.18;;;;;;;;;;5082707;28;20490;-63
2022/04/11 14:12:58;;;;;;;15.60;10.50;;;;;;;;;;5074914;28;20082;-63
2022/04/11 14:15:24;;;;;;;16.10;9.73;;;;;;;;;;5082457;28;20512;-63
2022/04/11 14:17:50;;;;;;;14.55;9.82;;;;;;;;;;5084794;28;20056;-63
2022/04/11 14:20:16;;;;;;;13.65;9.60;;;;;;;;;;5078939;28;20495;-63
2022/04/11 14:22:43;;;;;;;13.55;9.68;;;;;;;;;;5074182;28;20127;-64
2022/04/11 14:25:09;;;;;;;13.20;10.40;;;;;;;;;;5097736;28;20090;-64
2022/04/11 14:27:35;;;;;;;15.55;10.45;;;;;;;;;;5072958;28;20033;-64
2022/04/11 14:30:01;;;;;;;17.02;11.02;;;;;;;;;;5082546;28;20039;-63
2022/04/11 14:32:27;;;;;;;13.35;9.93;;;;;;;;;;5087883;28;20111;-63
2022/04/11 14:34:53;;;;;;;14.20;9.95;;;;;;;;;;5084722;28;20036;-65
2022/04/11 14:37:19;;;;;;;12.48;10.02;;;;;;;;;;5064538;28;20075;-64
2022/04/11 14:39:45;;;;;;;15.90;10.80;;;;;;;;;;5085433;28;20135;-64
2022/04/11 14:42:11;;;;;;;14.63;10.68;;;;;;;;;;5083645;28;20051;-64
2022/04/11 14:44:37;;;;;;;12.68;10.07;;;;;;;;;;5092692;28;20081;-64